Time;durP1;ratioP1;P1;durP2;ratioP2;P2;SDS_P1;SDS_P2;PMS_P1;PMS_P2;Temp;Humidity;BMP_temperature;BMP_pressure;BME280_temperature;BME280_humidity;BME280_pressure;Samples;Min_cycle;Max_cycle;Signal;HPM_P1;HPM_P2
2022/01/14 00:00:32;;;;;;;38.80;27.37;;;3.70;99.90;;;;;;5176324;27;20245;-79
2022/01/14 00:02:57;;;;;;;38.60;26.27;;;3.90;99.90;;;;;;5166664;27;20168;-78
2022/01/14 00:05:25;;;;;;;36.50;26.90;;;3.90;99.90;;;;;;5166879;27;20220;-82
2022/01/14 00:08:27;;;;;;;38.10;28.20;;;3.70;99.90;;;;;;5139745;27;20165;-79
2022/01/14 00:10:57;;;;;;;37.23;25.07;;;4.00;99.90;;;;;;5156523;27;20166;-80
2022/01/14 00:13:45;;;;;;;41.17;27.90;;;3.80;99.90;;;;;;5156279;27;20169;-80
2022/01/14 00:16:15;;;;;;;40.77;28.50;;;3.80;99.90;;;;;;5155581;27;20165;-81
2022/01/14 00:18:41;;;;;;;38.17;27.50;;;3.80;99.90;;;;;;5136728;27;20508;-81
2022/01/14 00:21:07;;;;;;;39.70;26.30;;;3.90;99.90;;;;;;5155637;27;20173;-87
2022/01/14 00:23:37;;;;;;;37.93;27.00;;;3.90;99.90;;;;;;5155693;27;20657;-87
2022/01/14 00:31:57;;;;;;;42.73;28.23;;;3.70;99.90;;;;;;5144636;27;20225;-86
2022/01/14 00:34:23;;;;;;;39.77;28.00;;;3.80;99.90;;;;;;5138112;27;20176;-86
2022/01/14 00:36:49;;;;;;;39.53;28.73;;;4.00;99.90;;;;;;5138616;27;20271;-87
2022/01/14 00:39:15;;;;;;;42.53;29.83;;;4.00;99.90;;;;;;5156571;27;20185;-80
2022/01/14 00:41:42;;;;;;;39.30;28.00;;;4.10;99.90;;;;;;5156083;27;20645;-83
2022/01/14 00:44:11;;;;;;;45.97;28.53;;;3.90;99.90;;;;;;5155888;27;20197;-87
2022/01/14 00:46:42;;;;;;;40.30;28.50;;;3.80;99.90;;;;;;5156275;27;20161;-82
2022/01/14 00:49:18;;;;;;;42.53;27.43;;;3.80;99.90;;;;;;5138721;27;20264;-83
2022/01/14 00:51:44;;;;;;;43.33;28.07;;;3.60;99.90;;;;;;5157800;27;20257;-87
2022/01/14 00:54:11;;;;;;;42.03;28.33;;;3.70;99.90;;;;;;5138621;27;20170;-85
2022/01/14 00:59:14;;;;;;;43.37;29.13;;;3.70;99.90;;;;;;5179237;27;20166;-83
2022/01/14 01:01:52;;;;;;;41.20;27.70;;;3.60;99.90;;;;;;5176853;27;20225;-83
2022/01/14 01:04:31;;;;;;;40.37;28.33;;;3.50;99.90;;;;;;5145538;27;20273;-84
2022/01/14 01:07:01;;;;;;;39.13;27.40;;;3.70;99.90;;;;;;5157851;27;20178;-86
2022/01/14 01:09:29;;;;;;;44.40;29.17;;;3.70;99.90;;;;;;5139590;27;20214;-88
2022/01/14 01:12:14;;;;;;;42.83;27.17;;;3.60;99.90;;;;;;5138497;27;20194;-83
2022/01/14 01:14:50;;;;;;;37.77;26.10;;;3.60;99.90;;;;;;5177967;27;20169;-81
2022/01/14 01:17:17;;;;;;;37.47;26.00;;;3.50;99.90;;;;;;5178129;27;20164;-85
2022/01/14 01:19:46;;;;;;;37.03;26.20;;;3.50;99.90;;;;;;5175370;27;20191;-86
2022/01/14 01:22:12;;;;;;;40.93;25.87;;;3.40;99.90;;;;;;5170693;27;20189;-81
2022/01/14 01:24:37;;;;;;;35.47;25.43;;;3.30;99.90;;;;;;5168983;27;20205;-85
2022/01/14 01:27:07;;;;;;;35.37;24.57;;;3.30;99.90;;;;;;5149464;27;20653;-83
2022/01/14 01:32:03;;;;;;;36.10;25.40;;;3.30;99.90;;;;;;5164927;27;20263;-81
2022/01/14 01:34:29;;;;;;;37.60;26.17;;;3.30;99.90;;;;;;5160961;27;20170;-86
2022/01/14 01:36:57;;;;;;;36.73;26.03;;;3.30;99.90;;;;;;5159907;27;20166;-79
2022/01/14 01:39:34;;;;;;;34.77;24.90;;;3.40;99.90;;;;;;5141579;27;20186;-84
2022/01/14 01:42:05;;;;;;;42.93;27.07;;;3.50;99.90;;;;;;5160591;27;20218;-83
2022/01/14 01:44:32;;;;;;;39.93;27.70;;;3.70;99.90;;;;;;5161747;27;20664;-87
2022/01/14 01:46:58;;;;;;;41.60;27.77;;;3.80;99.90;;;;;;5162412;27;20154;-84
2022/01/14 01:49:28;;;;;;;41.43;26.57;;;3.90;99.90;;;;;;5163412;27;20169;-87
2022/01/14 01:51:54;;;;;;;39.60;27.10;;;3.90;99.90;;;;;;5160980;27;20177;-86
2022/01/14 01:54:21;;;;;;;35.33;26.40;;;3.80;99.90;;;;;;5159293;27;20183;-83
2022/01/14 01:56:49;;;;;;;35.73;25.37;;;3.70;99.90;;;;;;5140131;27;20182;-81
2022/01/14 01:59:16;;;;;;;40.00;25.93;;;3.70;99.90;;;;;;5157828;27;20220;-86
2022/01/14 02:01:42;;;;;;;34.87;25.33;;;3.60;99.90;;;;;;5159826;27;20196;-86
2022/01/14 02:04:08;;;;;;;36.53;25.23;;;3.40;99.90;;;;;;5141970;27;20284;-84
2022/01/14 02:06:37;;;;;;;36.47;25.97;;;3.40;99.90;;;;;;5141916;27;20175;-86
2022/01/14 02:09:04;;;;;;;36.30;25.33;;;3.40;99.90;;;;;;5175032;27;20202;-82
2022/01/14 02:11:29;;;;;;;40.70;25.57;;;3.30;99.90;;;;;;5181924;27;20169;-87
2022/01/14 02:13:58;;;;;;;37.50;26.60;;;3.40;99.90;;;;;;5180905;27;20164;-80
2022/01/14 02:16:59;;;;;;;38.20;26.20;;;3.60;99.90;;;;;;5164947;27;20158;-86
2022/01/14 02:19:26;;;;;;;37.07;26.47;;;3.60;99.90;;;;;;5177583;27;20237;-80
2022/01/14 02:22:13;;;;;;;38.00;25.77;;;3.50;99.90;;;;;;5152185;27;20239;-82
2022/01/14 02:30:18;;;;;;;38.80;24.83;;;3.50;99.90;;;;;;5163907;27;20177;-84
2022/01/14 02:32:44;;;;;;;35.87;25.50;;;3.40;99.90;;;;;;5163687;27;20202;-85
2022/01/14 02:35:10;;;;;;;34.80;24.50;;;3.30;99.90;;;;;;5171834;27;20193;-83
2022/01/14 02:37:35;;;;;;;33.20;24.00;;;3.30;99.90;;;;;;5146996;27;20206;-86
2022/01/14 02:40:17;;;;;;;37.80;24.83;;;3.30;99.90;;;;;;5159956;27;20157;-84
2022/01/14 02:42:43;;;;;;;35.70;25.07;;;3.30;99.90;;;;;;5161242;27;20162;-88
2022/01/14 02:45:11;;;;;;;38.93;26.13;;;3.40;99.90;;;;;;5141056;27;20205;-85
2022/01/14 02:47:37;;;;;;;37.73;25.97;;;3.40;99.90;;;;;;5160636;27;20157;-81
2022/01/14 02:50:08;;;;;;;35.17;23.30;;;3.30;99.90;;;;;;5172699;27;20166;-81
2022/01/14 02:55:22;;;;;;;38.03;25.07;;;3.20;99.90;;;;;;5176918;27;20204;-79
2022/01/14 02:57:51;;;;;;;36.63;25.43;;;3.10;99.90;;;;;;5175193;27;20189;-86
2022/01/14 03:00:30;;;;;;;32.67;23.93;;;3.10;99.90;;;;;;5162760;27;20222;-87
2022/01/14 03:02:58;;;;;;;35.33;25.27;;;3.10;99.90;;;;;;5160342;27;20153;-86
2022/01/14 03:05:27;;;;;;;32.27;24.03;;;3.10;99.90;;;;;;5159915;27;20211;-86
2022/01/14 03:07:53;;;;;;;36.10;24.27;;;3.10;99.90;;;;;;5179901;27;20160;-82
2022/01/14 03:10:19;;;;;;;40.43;26.80;;;3.10;99.90;;;;;;5180574;27;20154;-83
2022/01/14 03:12:48;;;;;;;34.17;23.63;;;3.20;99.90;;;;;;5159522;27;20715;-81
2022/01/14 03:15:15;;;;;;;35.40;24.90;;;3.10;99.90;;;;;;5159308;27;20165;-86
2022/01/14 03:17:41;;;;;;;35.87;24.27;;;3.10;99.90;;;;;;5139027;27;20217;-86
2022/01/14 03:20:11;;;;;;;35.30;23.73;;;3.10;99.90;;;;;;5139228;27;20174;-86
2022/01/14 03:22:41;;;;;;;36.73;24.50;;;3.10;99.90;;;;;;5177860;27;20161;-84
2022/01/14 03:27:56;;;;;;;42.47;25.60;;;3.00;99.90;;;;;;5168072;27;20184;-86
2022/01/14 03:30:32;;;;;;;37.20;23.93;;;3.00;99.90;;;;;;5139640;27;20260;-84
2022/01/14 03:32:57;;;;;;;39.37;25.97;;;3.10;99.90;;;;;;5165556;27;20644;-82
2022/01/14 03:35:23;;;;;;;39.63;25.70;;;3.10;99.90;;;;;;5146339;27;20169;-85
2022/01/14 03:37:49;;;;;;;37.57;25.47;;;3.10;99.90;;;;;;5165182;27;20186;-81
2022/01/14 03:40:14;;;;;;;37.13;25.37;;;3.10;99.90;;;;;;5164757;27;20244;-86
2022/01/14 03:42:40;;;;;;;36.80;25.70;;;3.10;99.90;;;;;;5163688;27;20169;-81
2022/01/14 03:45:06;;;;;;;36.00;25.03;;;3.00;99.90;;;;;;5161562;27;20201;-86
2022/01/14 03:47:33;;;;;;;33.03;24.13;;;3.00;99.90;;;;;;5139332;27;20165;-86
2022/01/14 03:49:58;;;;;;;34.50;25.00;;;3.00;99.90;;;;;;5159550;27;20164;-87
2022/01/14 03:52:25;;;;;;;38.80;25.50;;;3.00;99.90;;;;;;5159791;27;20222;-85
2022/01/14 03:54:51;;;;;;;37.10;25.27;;;3.00;99.90;;;;;;5144833;27;20201;-85
2022/01/14 03:57:17;;;;;;;37.80;24.13;;;3.00;99.90;;;;;;5144174;27;20222;-82
2022/01/14 03:59:43;;;;;;;39.77;25.63;;;3.00;99.90;;;;;;5161658;27;20215;-81
2022/01/14 04:02:09;;;;;;;35.47;24.40;;;3.00;99.90;;;;;;5142097;27;20169;-86
2022/01/14 04:04:35;;;;;;;34.87;23.53;;;3.10;99.90;;;;;;5158472;27;20304;-84
2022/01/14 04:07:01;;;;;;;33.13;24.17;;;3.00;99.90;;;;;;5158125;27;20168;-85
2022/01/14 04:09:29;;;;;;;38.47;25.17;;;2.90;99.90;;;;;;5159419;27;20174;-84
2022/01/14 04:11:56;;;;;;;34.37;24.27;;;2.90;99.90;;;;;;5158289;27;20165;-81
2022/01/14 04:16:51;;;;;;;38.93;25.20;;;3.00;99.90;;;;;;5172706;27;20157;-80
2022/01/14 04:19:17;;;;;;;45.93;25.23;;;3.10;99.90;;;;;;5175483;27;20161;-81
2022/01/14 04:21:43;;;;;;;37.03;25.00;;;3.30;99.90;;;;;;5156667;27;20165;-83
2022/01/14 04:24:10;;;;;;;35.03;24.27;;;3.30;99.90;;;;;;5175791;27;20189;-82
2022/01/14 04:26:37;;;;;;;36.33;25.00;;;3.10;99.90;;;;;;5166439;27;20184;-79
2022/01/14 04:29:03;;;;;;;34.97;24.40;;;3.00;99.90;;;;;;5147940;27;20193;-85
2022/01/14 04:31:30;;;;;;;35.50;25.13;;;2.90;99.90;;;;;;5165696;27;20181;-84
2022/01/14 04:34:03;;;;;;;39.87;25.80;;;2.90;99.90;;;;;;5146665;27;20255;-84
2022/01/14 04:36:31;;;;;;;37.87;24.87;;;2.90;99.90;;;;;;5148543;27;20618;-81
2022/01/14 04:38:57;;;;;;;32.90;23.50;;;3.00;99.90;;;;;;5140506;27;20277;-88
2022/01/14 04:41:23;;;;;;;36.73;24.07;;;3.00;99.90;;;;;;5139918;27;20201;-85
2022/01/14 04:43:48;;;;;;;38.03;25.57;;;3.10;99.90;;;;;;5157615;27;20656;-84
2022/01/14 04:46:46;;;;;;;35.57;24.47;;;3.30;99.90;;;;;;5140946;27;20170;-85
2022/01/14 04:49:00;;;;;;;35.77;23.83;;;3.20;99.90;;;;;;5159411;27;20535;-90
2022/01/14 04:51:25;;;;;;;34.13;23.47;;;3.30;99.90;;;;;;5161850;27;20179;-83
2022/01/14 04:53:51;;;;;;;36.60;24.20;;;3.20;99.90;;;;;;5144711;27;20169;-79
2022/01/14 04:56:16;;;;;;;36.50;25.83;;;3.20;99.90;;;;;;5167026;27;20165;-84
2022/01/14 04:58:42;;;;;;;49.00;25.77;;;3.10;99.90;;;;;;5166813;27;20214;-85
2022/01/14 05:01:08;;;;;;;33.77;23.87;;;3.20;99.90;;;;;;5163392;27;20176;-86
2022/01/14 05:03:34;;;;;;;37.07;24.50;;;3.10;99.90;;;;;;5164132;27;20230;-85
2022/01/14 05:06:01;;;;;;;35.37;24.37;;;3.10;99.90;;;;;;5163924;27;20637;-86
2022/01/14 05:08:36;;;;;;;33.17;24.63;;;3.20;99.90;;;;;;5170350;27;20162;-81
2022/01/14 05:13:44;;;;;;;35.80;24.20;;;3.10;99.90;;;;;;5180542;27;20176;-80
2022/01/14 05:16:12;;;;;;;35.97;24.17;;;3.20;99.90;;;;;;5174384;27;20183;-81
2022/01/14 05:18:38;;;;;;;36.17;25.70;;;3.20;99.90;;;;;;5166655;27;20174;-84
2022/01/14 05:21:07;;;;;;;36.23;25.10;;;3.20;99.90;;;;;;5172844;27;20150;-83
2022/01/14 05:23:33;;;;;;;39.73;24.23;;;3.20;99.90;;;;;;5171535;27;20182;-81
2022/01/14 05:25:59;;;;;;;39.60;24.97;;;3.20;99.90;;;;;;5177171;27;20233;-85
2022/01/14 05:28:24;;;;;;;37.60;25.33;;;3.20;99.90;;;;;;5175491;27;20158;-82
2022/01/14 05:30:52;;;;;;;38.63;25.47;;;3.20;99.90;;;;;;5160363;27;20209;-79
2022/01/14 05:33:21;;;;;;;37.70;25.40;;;3.10;99.90;;;;;;5158819;27;20184;-79
2022/01/14 05:35:52;;;;;;;37.67;24.97;;;3.00;99.90;;;;;;5178278;27;20229;-80
2022/01/14 05:38:40;;;;;;;39.10;25.67;;;3.10;99.90;;;;;;5179421;27;20185;-79
2022/01/14 05:41:17;;;;;;;37.90;25.90;;;3.10;99.90;;;;;;5166550;27;20622;-85
2022/01/14 05:44:33;;;;;;;36.97;24.10;;;3.00;99.90;;;;;;5169758;27;20233;-88
2022/01/14 05:47:11;;;;;;;34.73;24.70;;;2.90;99.90;;;;;;5160200;27;20165;-84
2022/01/14 05:49:37;;;;;;;37.10;25.27;;;2.90;99.90;;;;;;5160334;27;20272;-81
2022/01/14 05:52:03;;;;;;;39.03;25.40;;;2.90;99.90;;;;;;5142567;27;20166;-82
2022/01/14 05:54:29;;;;;;;33.73;23.80;;;2.90;99.90;;;;;;5167100;27;20195;-81
2022/01/14 05:56:55;;;;;;;43.37;26.67;;;2.90;99.90;;;;;;5165853;27;20169;-86
2022/01/14 05:59:21;;;;;;;38.17;26.17;;;2.90;99.90;;;;;;5139937;27;20193;-82
2022/01/14 06:01:47;;;;;;;36.30;25.83;;;2.80;99.90;;;;;;5158288;27;20166;-85
2022/01/14 06:04:13;;;;;;;40.60;26.53;;;2.80;99.90;;;;;;5157920;27;20213;-86
2022/01/14 06:06:38;;;;;;;42.80;26.63;;;2.80;99.90;;;;;;5158368;27;20173;-87
2022/01/14 06:09:04;;;;;;;38.90;26.60;;;2.80;99.90;;;;;;5141636;27;20562;-81
2022/01/14 06:11:30;;;;;;;44.03;27.10;;;2.80;99.90;;;;;;5158503;27;20534;-85
2022/01/14 06:13:56;;;;;;;45.30;27.70;;;2.90;99.90;;;;;;5158471;27;20244;-85
2022/01/14 06:16:21;;;;;;;40.00;26.80;;;3.00;99.90;;;;;;5158075;27;20629;-81
2022/01/14 06:18:47;;;;;;;42.83;27.50;;;2.80;99.90;;;;;;5173513;27;20165;-86
2022/01/14 06:21:13;;;;;;;39.40;27.07;;;2.70;99.90;;;;;;5174353;27;20166;-81
2022/01/14 06:23:39;;;;;;;43.20;29.43;;;2.80;99.90;;;;;;5143675;27;20242;-86
2022/01/14 06:26:06;;;;;;;45.40;28.43;;;2.90;99.90;;;;;;5157869;27;20197;-81
2022/01/14 06:28:32;;;;;;;44.30;27.50;;;2.90;99.90;;;;;;5157570;27;20654;-84
2022/01/14 06:30:58;;;;;;;51.77;28.87;;;2.90;99.90;;;;;;5139781;27;20178;-83
2022/01/14 06:33:24;;;;;;;48.17;29.17;;;2.90;99.90;;;;;;5157644;27;20503;-86
2022/01/14 06:35:50;;;;;;;40.27;27.80;;;2.90;99.90;;;;;;5138544;27;20168;-83
2022/01/14 06:38:17;;;;;;;38.67;27.17;;;3.00;99.90;;;;;;5157209;27;20188;-84
2022/01/14 06:40:43;;;;;;;42.27;27.47;;;2.90;99.90;;;;;;5157297;27;20169;-81
2022/01/14 06:43:08;;;;;;;40.30;28.67;;;3.00;99.90;;;;;;5158369;27;20539;-85
2022/01/14 06:45:34;;;;;;;38.67;28.97;;;3.20;99.90;;;;;;5158505;27;20205;-82
2022/01/14 06:48:01;;;;;;;48.17;30.70;;;3.30;99.90;;;;;;5139333;27;20169;-82
2022/01/14 06:50:27;;;;;;;48.90;30.50;;;3.50;99.90;;;;;;5124223;28;20379;-81
2022/01/14 06:52:53;;;;;;;43.03;30.67;;;3.60;99.90;;;;;;5139840;27;20676;-90
2022/01/14 06:55:19;;;;;;;47.70;31.13;;;3.80;99.90;;;;;;5118303;28;20210;-83
2022/01/14 06:57:44;;;;;;;42.67;28.83;;;3.60;99.90;;;;;;5095188;27;1208326;-83
2022/01/14 07:00:13;;;;;;;46.27;29.57;;;3.50;99.90;;;;;;5120037;27;20548;-84
2022/01/14 07:02:39;;;;;;;43.60;29.93;;;3.60;99.90;;;;;;5125544;27;20184;-87
2022/01/14 07:05:07;;;;;;;51.03;31.00;;;3.50;99.90;;;;;;5164034;27;20219;-89
2022/01/14 07:07:33;;;;;;;46.50;28.97;;;3.60;99.90;;;;;;5178614;27;20184;-83
2022/01/14 07:09:59;;;;;;;47.47;31.37;;;3.60;99.90;;;;;;5127808;27;20170;-90
2022/01/14 07:12:29;;;;;;;43.90;30.47;;;3.70;99.90;;;;;;5143057;27;20170;-91
2022/01/14 07:14:56;;;;;;;52.67;32.47;;;3.80;99.90;;;;;;5122018;27;20186;-92
2022/01/14 07:17:22;;;;;;;47.30;31.00;;;3.60;99.90;;;;;;5143076;27;20177;-85
2022/01/14 07:19:51;;;;;;;45.00;30.97;;;3.60;99.90;;;;;;5156335;27;20159;-79
2022/01/14 07:22:17;;;;;;;46.73;30.57;;;3.60;99.90;;;;;;5160780;27;20173;-86
2022/01/14 07:25:14;;;;;;;47.57;30.93;;;3.60;99.90;;;;;;5163883;27;20256;-81
2022/01/14 07:27:42;;;;;;;50.37;30.80;;;3.60;99.90;;;;;;5161047;27;20207;-90
2022/01/14 07:30:10;;;;;;;45.90;29.93;;;3.60;99.90;;;;;;5162275;27;20205;-82
2022/01/14 07:32:36;;;;;;;49.07;28.63;;;3.60;99.90;;;;;;5161950;27;20158;-85
2022/01/14 07:35:02;;;;;;;41.77;29.03;;;3.60;99.90;;;;;;5172367;27;20228;-88
2022/01/14 07:37:29;;;;;;;49.10;30.23;;;3.80;99.90;;;;;;5178032;27;20154;-81
2022/01/14 07:39:55;;;;;;;41.00;28.53;;;3.90;99.90;;;;;;5168599;27;20162;-88
2022/01/14 07:42:27;;;;;;;42.40;28.40;;;4.00;99.90;;;;;;5168012;27;20165;-83
2022/01/14 07:44:53;;;;;;;39.80;26.97;;;3.90;99.90;;;;;;5168784;27;20200;-92
2022/01/14 07:47:18;;;;;;;42.20;28.53;;;3.90;99.90;;;;;;5183952;27;20233;-89
2022/01/14 07:49:44;;;;;;;47.57;29.57;;;3.90;99.90;;;;;;5183713;27;20176;-90
2022/01/14 07:52:10;;;;;;;44.90;28.40;;;4.10;99.90;;;;;;5166826;27;20185;-87
2022/01/14 07:54:37;;;;;;;39.43;29.03;;;4.10;99.90;;;;;;5168338;27;20187;-82
2022/01/14 07:57:03;;;;;;;45.10;29.40;;;4.10;99.90;;;;;;5169596;27;20240;-83
2022/01/14 07:59:32;;;;;;;46.43;30.23;;;4.20;99.90;;;;;;5168831;27;20185;-86
2022/01/14 08:02:02;;;;;;;41.90;29.13;;;4.30;99.90;;;;;;5178071;27;20177;-82
2022/01/14 08:04:29;;;;;;;43.37;29.63;;;4.40;99.90;;;;;;5175229;27;20228;-82
2022/01/14 08:06:58;;;;;;;40.87;27.77;;;4.40;99.90;;;;;;5190065;27;20172;-81
2022/01/14 08:09:25;;;;;;;47.37;28.13;;;4.50;99.90;;;;;;5171664;27;20177;-91
2022/01/14 08:11:54;;;;;;;44.70;27.47;;;4.70;99.90;;;;;;5166967;27;20256;-82
2022/01/14 08:14:19;;;;;;;51.03;28.27;;;4.60;99.90;;;;;;5163435;27;20177;-90
2022/01/14 08:16:46;;;;;;;43.33;27.50;;;4.40;99.90;;;;;;5162213;27;20693;-88
2022/01/14 08:19:13;;;;;;;43.30;27.93;;;4.30;99.90;;;;;;5166300;27;20172;-90
2022/01/14 08:21:39;;;;;;;42.57;28.27;;;4.40;99.90;;;;;;5192113;27;20141;-83
2022/01/14 08:24:05;;;;;;;43.17;28.43;;;4.50;99.90;;;;;;5200683;27;20252;-84
2022/01/14 08:26:31;;;;;;;49.10;28.93;;;4.50;99.90;;;;;;5178567;27;20167;-81
2022/01/14 08:28:56;;;;;;;43.50;27.57;;;4.50;99.90;;;;;;5170151;27;20211;-82
2022/01/14 08:32:15;;;;;;;41.07;26.93;;;4.50;99.90;;;;;;5192932;27;20165;-81
2022/01/14 08:34:42;;;;;;;40.70;26.77;;;4.70;99.90;;;;;;5173522;27;20165;-81
2022/01/14 08:37:14;;;;;;;42.10;27.13;;;4.60;99.90;;;;;;5187998;27;20182;-82
2022/01/14 08:39:46;;;;;;;46.67;28.90;;;4.50;99.90;;;;;;5198052;27;20250;-79
2022/01/14 08:42:30;;;;;;;45.53;28.70;;;4.60;99.90;;;;;;5200144;27;20208;-81
2022/01/14 08:45:07;;;;;;;44.37;28.87;;;4.50;99.90;;;;;;5197946;27;20208;-79
2022/01/14 08:47:52;;;;;;;40.10;28.47;;;4.40;99.90;;;;;;5182447;27;20172;-81
2022/01/14 08:50:26;;;;;;;46.67;30.20;;;4.50;99.90;;;;;;5198785;27;20145;-82
2022/01/14 08:52:59;;;;;;;61.87;38.77;;;4.60;99.90;;;;;;5198864;27;20549;-82
2022/01/14 08:55:35;;;;;;;49.27;32.20;;;4.80;99.90;;;;;;5179624;27;20153;-80
2022/01/14 08:58:02;;;;;;;47.43;31.43;;;4.80;99.90;;;;;;5157627;27;20197;-83
2022/01/14 09:00:28;;;;;;;38.20;28.90;;;4.80;99.90;;;;;;5132421;27;20158;-81
2022/01/14 09:03:27;;;;;;;48.97;29.87;;;4.80;99.90;;;;;;5142283;27;20515;-81
2022/01/14 09:05:55;;;;;;;48.30;28.73;;;4.90;99.90;;;;;;5179808;27;20162;-85
2022/01/14 09:08:22;;;;;;;50.17;29.60;;;4.80;99.90;;;;;;5179975;27;20174;-85
2022/01/14 09:10:48;;;;;;;47.03;30.67;;;5.00;99.90;;;;;;5180027;27;20154;-85
2022/01/14 09:13:15;;;;;;;40.73;29.93;;;4.90;99.90;;;;;;5177621;27;20175;-90
2022/01/14 09:15:45;;;;;;;50.40;30.23;;;5.00;99.90;;;;;;5140590;27;20181;-92
2022/01/14 09:18:11;;;;;;;45.30;29.20;;;5.10;99.90;;;;;;5149603;27;20174;-92
2022/01/14 09:20:38;;;;;;;44.03;29.63;;;5.00;99.90;;;;;;5170477;27;20628;-91
2022/01/14 09:23:15;;;;;;;40.57;28.47;;;4.90;99.90;;;;;;5164606;27;20154;-93
2022/01/14 09:25:43;;;;;;;50.40;28.73;;;5.00;99.90;;;;;;5164193;27;20660;-93
2022/01/14 09:28:12;;;;;;;44.37;29.50;;;5.10;99.90;;;;;;5163045;27;20154;-91
2022/01/14 09:30:51;;;;;;;43.93;29.97;;;5.30;99.90;;;;;;5144969;27;20170;-93
2022/01/14 09:33:20;;;;;;;56.13;30.83;;;5.40;99.90;;;;;;5144178;27;20239;-91
2022/01/14 09:35:55;;;;;;;51.77;28.77;;;5.40;99.90;;;;;;5149999;27;20169;-93
2022/01/14 09:38:23;;;;;;;45.63;29.03;;;5.30;99.90;;;;;;5144417;27;20221;-86
2022/01/14 09:40:52;;;;;;;42.87;28.87;;;5.40;99.90;;;;;;5164080;27;20253;-86
2022/01/14 09:46:27;;;;;;;52.40;30.60;;;5.40;99.90;;;;;;5165008;27;20169;-93
2022/01/14 09:48:54;;;;;;;55.50;31.53;;;5.40;99.90;;;;;;5146480;27;20170;-91
2022/01/14 09:51:20;;;;;;;51.93;29.33;;;5.50;99.90;;;;;;5147876;27;20181;-88
2022/01/14 09:53:47;;;;;;;46.17;28.40;;;5.40;99.90;;;;;;5156794;27;20165;-91
2022/01/14 09:56:22;;;;;;;43.53;30.13;;;5.50;99.90;;;;;;5164612;27;20158;-90
2022/01/14 09:58:50;;;;;;;43.67;30.00;;;5.50;99.90;;;;;;5147733;27;20221;-90
2022/01/14 10:01:36;;;;;;;44.83;30.07;;;5.70;99.90;;;;;;5165443;27;20149;-84
2022/01/14 10:04:24;;;;;;;50.03;30.80;;;5.80;99.90;;;;;;5145228;27;20197;-90
2022/01/14 10:06:58;;;;;;;47.97;30.10;;;5.70;99.90;;;;;;5157572;27;20207;-85
2022/01/14 10:09:42;;;;;;;40.83;28.73;;;5.80;99.90;;;;;;5151818;27;20169;-90
2022/01/14 10:12:17;;;;;;;48.03;29.47;;;5.90;99.90;;;;;;5127080;27;20220;-92
2022/01/14 10:15:08;;;;;;;49.70;31.03;;;5.90;99.90;;;;;;5142891;27;20158;-92
2022/01/14 10:17:59;;;;;;;48.13;29.83;;;5.90;99.90;;;;;;5126131;27;20155;-92
2022/01/14 10:20:36;;;;;;;44.50;30.13;;;5.90;99.90;;;;;;5128150;27;20241;-91
2022/01/14 10:23:03;;;;;;;46.30;30.33;;;6.10;99.90;;;;;;5124558;27;20221;-94
2022/01/14 10:25:29;;;;;;;43.63;29.43;;;6.30;99.80;;;;;;5145185;27;20249;-94
2022/01/14 10:27:57;;;;;;;43.57;30.27;;;6.30;99.20;;;;;;5147842;27;20162;-90
2022/01/14 10:30:32;;;;;;;43.97;29.67;;;6.20;99.10;;;;;;5143151;27;20512;-91
2022/01/14 10:33:07;;;;;;;44.13;29.40;;;6.10;99.10;;;;;;5165785;27;20258;-93
2022/01/14 10:35:41;;;;;;;41.03;30.57;;;6.00;99.50;;;;;;5166039;27;20603;-92
2022/01/14 10:38:12;;;;;;;43.67;31.40;;;6.00;99.90;;;;;;5169692;27;20189;-87
2022/01/14 10:40:59;;;;;;;40.60;29.93;;;6.10;99.90;;;;;;5187811;27;20185;-90
2022/01/14 10:43:35;;;;;;;45.17;30.37;;;6.10;99.90;;;;;;5124777;27;20642;-95
2022/01/14 10:46:06;;;;;;;46.40;30.70;;;6.10;99.90;;;;;;5122453;27;20269;-88
2022/01/14 10:48:40;;;;;;;43.53;31.63;;;6.20;99.90;;;;;;5121756;27;20694;-90
2022/01/14 10:51:10;;;;;;;45.07;31.30;;;6.30;99.90;;;;;;5121577;27;20170;-85
2022/01/14 10:53:42;;;;;;;45.83;30.17;;;6.40;99.90;;;;;;5144832;27;20617;-81
2022/01/14 10:56:10;;;;;;;43.70;30.30;;;6.50;99.30;;;;;;5145599;27;20170;-87
2022/01/14 10:58:42;;;;;;;46.43;31.70;;;6.40;99.10;;;;;;5125338;27;20190;-87
2022/01/14 11:01:15;;;;;;;41.40;32.50;;;6.40;99.30;;;;;;5121801;27;20206;-87
2022/01/14 11:03:42;;;;;;;41.13;30.90;;;6.60;99.40;;;;;;5141189;27;20194;-84
2022/01/14 11:06:15;;;;;;;47.17;30.93;;;6.70;98.90;;;;;;5143785;27;20177;-84
2022/01/14 11:08:40;;;;;;;42.37;29.87;;;6.80;98.50;;;;;;5159684;27;20193;-88
2022/01/14 11:11:08;;;;;;;44.90;31.87;;;6.80;98.30;;;;;;5135023;27;20330;-82
2022/01/14 11:13:35;;;;;;;45.03;32.43;;;6.90;98.30;;;;;;5145419;27;20276;-82
2022/01/14 11:16:05;;;;;;;47.43;30.67;;;7.00;97.30;;;;;;5141227;27;20154;-80
2022/01/14 11:18:30;;;;;;;45.60;31.30;;;7.10;97.30;;;;;;5124428;27;20182;-81
2022/01/14 11:23:42;;;;;;;41.00;30.13;;;7.20;96.50;;;;;;5145902;27;20213;-91
2022/01/14 11:26:15;;;;;;;46.57;32.00;;;7.10;96.90;;;;;;5132563;27;20163;-81
2022/01/14 11:28:44;;;;;;;44.33;31.23;;;7.40;96.40;;;;;;5140826;27;20174;-80
2022/01/14 11:31:30;;;;;;;41.17;29.93;;;7.40;95.80;;;;;;5147324;27;20534;-84
2022/01/14 11:34:30;;;;;;;40.97;29.47;;;7.50;96.00;;;;;;5146146;27;20178;-82
2022/01/14 11:37:31;;;;;;;37.93;28.43;;;7.50;96.00;;;;;;5128322;27;20174;-81
2022/01/14 11:40:07;;;;;;;35.90;28.20;;;7.50;95.90;;;;;;5145519;27;20182;-81
2022/01/14 11:42:45;;;;;;;38.17;28.97;;;7.60;96.10;;;;;;5128159;27;20192;-81
2022/01/14 11:45:54;;;;;;;40.00;28.57;;;7.70;96.20;;;;;;5143742;27;20213;-82
2022/01/14 11:48:48;;;;;;;37.90;26.73;;;8.00;95.80;;;;;;5141332;27;20170;-82
2022/01/14 11:51:17;;;;;;;40.30;27.57;;;8.20;94.40;;;;;;5139392;27;20622;-91
2022/01/14 11:53:48;;;;;;;37.50;27.97;;;8.20;93.80;;;;;;5128776;27;20207;-80
2022/01/14 11:56:44;;;;;;;38.10;27.50;;;8.40;93.70;;;;;;5154346;27;20162;-82
2022/01/14 11:59:20;;;;;;;40.00;28.27;;;8.60;92.50;;;;;;5106154;27;20202;-90
2022/01/14 12:01:47;;;;;;;40.03;27.97;;;8.80;88.40;;;;;;5121437;27;20178;-83
2022/01/14 12:04:15;;;;;;;33.93;27.07;;;8.80;86.80;;;;;;5143936;27;20653;-80
2022/01/14 12:06:50;;;;;;;38.67;27.93;;;8.80;88.80;;;;;;5154245;27;20177;-83
2022/01/14 12:09:20;;;;;;;33.53;25.10;;;8.90;88.90;;;;;;5153360;27;20180;-81
2022/01/14 12:12:24;;;;;;;36.80;27.07;;;9.00;87.50;;;;;;5168738;27;20157;-79
2022/01/14 12:15:00;;;;;;;30.40;25.97;;;9.00;85.70;;;;;;5169073;27;20629;-79
2022/01/14 12:17:37;;;;;;;37.33;25.50;;;9.00;86.40;;;;;;5165216;27;20847;-86
2022/01/14 12:20:27;;;;;;;31.03;24.97;;;9.10;85.20;;;;;;5166812;27;20185;-80
2022/01/14 12:23:08;;;;;;;35.50;26.80;;;9.10;85.70;;;;;;5149716;27;20177;-87
2022/01/14 12:25:44;;;;;;;31.83;25.27;;;9.20;83.90;;;;;;5161582;27;20685;-82
2022/01/14 12:28:25;;;;;;;31.37;25.17;;;9.40;85.70;;;;;;5142577;27;20179;-88
2022/01/14 12:31:01;;;;;;;30.70;25.93;;;9.40;85.40;;;;;;5159867;27;20149;-81
2022/01/14 12:33:42;;;;;;;31.83;25.83;;;9.30;83.20;;;;;;5141190;27;20176;-91
2022/01/14 12:36:28;;;;;;;33.90;24.67;;;9.40;83.50;;;;;;5162753;27;20161;-85
2022/01/14 12:38:55;;;;;;;30.33;24.57;;;9.30;83.00;;;;;;5163813;27;20196;-88
2022/01/14 12:41:23;;;;;;;37.73;24.70;;;9.40;84.50;;;;;;5160418;27;20146;-83
2022/01/14 12:43:56;;;;;;;31.93;24.07;;;9.60;84.30;;;;;;5144030;27;20205;-81
2022/01/14 12:47:10;;;;;;;32.57;23.53;;;9.60;82.60;;;;;;5162911;27;20172;-80
2022/01/14 12:49:22;;;;;;;24.83;20.40;;;9.80;81.80;;;;;;5145414;27;20182;-87
2022/01/14 12:52:02;;;;;;;25.80;20.40;;;10.00;76.60;;;;;;5173292;27;20169;-83
2022/01/14 12:54:38;;;;;;;24.23;19.50;;;10.00;75.60;;;;;;5151553;27;20204;-85
2022/01/14 12:57:04;;;;;;;26.57;19.83;;;10.00;76.20;;;;;;5160075;27;20532;-81
2022/01/14 12:59:41;;;;;;;24.80;19.90;;;9.90;75.10;;;;;;5159278;27;20226;-81
2022/01/14 13:02:19;;;;;;;25.83;19.77;;;9.80;77.10;;;;;;5159496;27;20165;-89
2022/01/14 13:04:45;;;;;;;26.20;19.70;;;9.80;78.40;;;;;;5141029;27;20205;-91
2022/01/14 13:07:12;;;;;;;28.20;18.90;;;9.80;78.60;;;;;;5139959;27;20166;-87
2022/01/14 13:09:43;;;;;;;31.27;20.03;;;9.90;79.20;;;;;;5160432;27;20225;-88
2022/01/14 13:12:14;;;;;;;28.77;20.27;;;9.90;77.60;;;;;;5160047;27;20243;-87
2022/01/14 13:14:46;;;;;;;28.53;19.10;;;9.90;78.30;;;;;;5142679;27;20181;-85
2022/01/14 13:17:24;;;;;;;29.00;20.17;;;10.00;77.50;;;;;;5163945;27;20256;-84
2022/01/14 13:19:50;;;;;;;24.83;19.50;;;10.10;75.50;;;;;;5162690;27;20178;-80
2022/01/14 13:22:18;;;;;;;25.07;18.87;;;10.20;74.70;;;;;;5165507;27;20165;-82
2022/01/14 13:24:46;;;;;;;25.40;18.80;;;10.30;76.00;;;;;;5164340;27;20197;-89
2022/01/14 13:27:51;;;;;;;25.07;18.47;;;10.30;72.90;;;;;;5181251;27;20161;-82